Time;durP1;ratioP1;P1;durP2;ratioP2;P2;SDS_P1;SDS_P2;PMS_P1;PMS_P2;Temp;Humidity;BMP_temperature;BMP_pressure;BME280_temperature;BME280_humidity;BME280_pressure;Samples;Min_cycle;Max_cycle;Signal;HPM_P1;HPM_P2
2021/07/31 00:02:19;;;;;;;13.82;4.97;;;16.80;99.90;;;;;;4973331;28;20027;-75
2021/07/31 00:04:45;;;;;;;16.52;5.63;;;16.80;99.90;;;;;;4973768;28;20026;-74
2021/07/31 00:07:11;;;;;;;14.35;5.25;;;16.70;99.90;;;;;;4973986;28;20101;-76
2021/07/31 00:09:36;;;;;;;16.83;4.90;;;16.80;99.90;;;;;;4973418;28;20484;-75
2021/07/31 00:12:02;;;;;;;11.75;5.03;;;16.70;99.90;;;;;;4973560;28;20031;-74
2021/07/31 00:14:31;;;;;;;15.93;6.35;;;16.70;99.90;;;;;;4974844;28;20034;-76
2021/07/31 00:16:57;;;;;;;14.85;5.60;;;16.60;99.90;;;;;;4972883;28;20037;-74
2021/07/31 00:19:23;;;;;;;15.45;5.78;;;16.60;99.90;;;;;;4974772;28;20106;-74
2021/07/31 00:21:49;;;;;;;11.63;4.63;;;16.60;99.90;;;;;;4975012;28;20039;-75
2021/07/31 00:24:15;;;;;;;13.05;5.20;;;16.50;99.90;;;;;;4973296;28;20046;-74
2021/07/31 00:26:40;;;;;;;11.18;4.88;;;16.50;99.90;;;;;;4967647;28;20435;-74
2021/07/31 00:29:06;;;;;;;8.75;4.85;;;16.50;99.90;;;;;;4966340;28;20495;-74
2021/07/31 00:31:43;;;;;;;13.07;5.57;;;16.40;99.90;;;;;;4973438;28;20386;-74
2021/07/31 00:34:08;;;;;;;11.38;4.97;;;16.40;99.90;;;;;;4973465;28;20027;-74
2021/07/31 00:36:34;;;;;;;14.45;5.45;;;16.40;99.90;;;;;;4974638;28;20022;-76
2021/07/31 00:39:00;;;;;;;12.20;5.75;;;16.30;99.90;;;;;;4973023;28;20069;-74
2021/07/31 00:41:25;;;;;;;15.23;5.53;;;16.40;99.90;;;;;;4973706;28;20058;-75
2021/07/31 00:43:51;;;;;;;10.93;5.70;;;16.30;99.90;;;;;;4972584;28;20031;-74
2021/07/31 00:46:17;;;;;;;18.63;5.90;;;16.20;99.90;;;;;;4973338;28;20050;-73
2021/07/31 00:48:43;;;;;;;14.30;5.10;;;16.20;99.90;;;;;;4973755;28;20027;-74
2021/07/31 00:51:10;;;;;;;12.45;5.28;;;16.20;99.90;;;;;;4972935;28;20033;-74
2021/07/31 00:53:37;;;;;;;14.07;4.65;;;16.20;99.90;;;;;;4973461;28;20066;-74
2021/07/31 00:56:03;;;;;;;12.07;4.47;;;16.20;99.90;;;;;;4972237;28;20030;-74
2021/07/31 00:58:30;;;;;;;14.55;4.97;;;16.20;99.90;;;;;;4972724;28;20027;-74
2021/07/31 01:00:55;;;;;;;9.48;4.60;;;16.20;99.90;;;;;;4973193;28;20487;-74
2021/07/31 01:03:21;;;;;;;8.77;4.63;;;16.10;99.90;;;;;;4973169;28;20031;-74
2021/07/31 01:05:47;;;;;;;16.67;4.82;;;16.30;99.90;;;;;;4972482;28;20023;-74
2021/07/31 01:08:13;;;;;;;7.93;4.28;;;16.30;99.90;;;;;;4973593;28;20122;-74
2021/07/31 01:10:38;;;;;;;11.00;4.90;;;16.30;99.90;;;;;;4960246;28;20402;-73
2021/07/31 01:13:05;;;;;;;9.25;4.40;;;16.30;99.90;;;;;;4972601;28;20065;-74
2021/07/31 01:15:31;;;;;;;18.20;5.05;;;16.30;99.90;;;;;;4973037;28;20110;-74
2021/07/31 01:17:56;;;;;;;9.30;4.57;;;16.30;99.90;;;;;;4973183;28;20106;-74
2021/07/31 01:20:23;;;;;;;10.73;4.72;;;16.30;99.90;;;;;;4972542;28;20059;-73
2021/07/31 01:22:49;;;;;;;7.35;3.88;;;16.30;99.90;;;;;;4979565;28;20237;-75
2021/07/31 01:25:15;;;;;;;12.27;4.68;;;16.30;99.90;;;;;;4980423;28;20509;-75
2021/07/31 01:27:41;;;;;;;9.82;4.10;;;16.30;99.90;;;;;;4959911;28;20027;-73
2021/07/31 01:30:08;;;;;;;11.20;4.47;;;16.30;99.90;;;;;;4972928;28;20445;-74
2021/07/31 01:32:33;;;;;;;11.07;4.53;;;16.30;99.90;;;;;;4973315;28;20110;-73
2021/07/31 01:34:59;;;;;;;6.05;3.85;;;16.30;99.90;;;;;;4972080;28;20162;-74
2021/07/31 01:37:25;;;;;;;8.50;3.85;;;16.30;99.90;;;;;;4973337;28;20451;-73
2021/07/31 01:39:50;;;;;;;12.05;3.90;;;16.30;99.90;;;;;;4973020;28;20464;-75
2021/07/31 01:42:16;;;;;;;8.95;3.70;;;16.30;99.90;;;;;;4972481;28;20026;-74
2021/07/31 01:44:42;;;;;;;8.18;3.67;;;16.30;99.90;;;;;;4972853;28;20387;-74
2021/07/31 01:47:08;;;;;;;10.88;4.35;;;16.30;99.90;;;;;;4978897;28;20015;-74
2021/07/31 01:49:33;;;;;;;13.98;4.20;;;16.30;99.90;;;;;;4967655;28;20058;-74
2021/07/31 01:51:59;;;;;;;8.40;3.85;;;16.30;99.90;;;;;;4966845;28;20040;-76
2021/07/31 01:54:25;;;;;;;11.43;3.45;;;16.30;99.90;;;;;;4963514;28;20019;-76
2021/07/31 01:56:51;;;;;;;10.75;3.97;;;16.30;99.90;;;;;;4972622;28;20130;-75
2021/07/31 01:59:17;;;;;;;7.97;3.38;;;16.30;99.90;;;;;;4973085;28;20113;-75
2021/07/31 02:01:42;;;;;;;9.73;3.45;;;16.30;99.90;;;;;;4972675;28;20045;-75
2021/07/31 02:04:08;;;;;;;6.13;3.13;;;16.20;99.90;;;;;;4972861;28;20467;-76
2021/07/31 02:06:34;;;;;;;8.15;2.63;;;16.20;99.90;;;;;;4972951;28;20081;-76
2021/07/31 02:08:59;;;;;;;8.45;3.20;;;16.20;99.90;;;;;;4970973;28;20054;-75
2021/07/31 02:11:25;;;;;;;7.13;3.05;;;16.10;99.90;;;;;;4995557;28;20069;-75
2021/07/31 02:13:51;;;;;;;5.65;3.30;;;16.10;99.90;;;;;;4995111;28;20548;-76
2021/07/31 02:16:26;;;;;;;6.43;3.13;;;16.00;99.90;;;;;;4994981;28;20391;-74
2021/07/31 02:18:52;;;;;;;7.53;4.03;;;15.90;99.90;;;;;;4995052;28;20569;-74
2021/07/31 02:21:18;;;;;;;11.07;4.93;;;15.90;99.90;;;;;;4995666;28;20114;-74
2021/07/31 02:23:44;;;;;;;7.63;3.85;;;15.90;99.90;;;;;;4994212;28;20038;-75
2021/07/31 02:26:10;;;;;;;10.00;4.50;;;15.80;99.90;;;;;;4995037;28;20462;-74
2021/07/31 02:28:35;;;;;;;6.50;4.75;;;15.80;99.90;;;;;;4995463;28;20037;-73
2021/07/31 02:31:01;;;;;;;11.75;5.18;;;15.70;99.90;;;;;;4994353;28;20018;-74
2021/07/31 02:33:26;;;;;;;8.48;5.13;;;15.80;99.90;;;;;;4995309;28;20076;-74
2021/07/31 02:35:52;;;;;;;10.13;4.32;;;15.70;99.90;;;;;;4995012;28;20022;-74
2021/07/31 02:38:18;;;;;;;8.07;4.38;;;15.70;99.90;;;;;;4994403;28;20471;-73
2021/07/31 02:40:43;;;;;;;5.97;4.95;;;15.70;99.90;;;;;;4995237;28;20045;-74
2021/07/31 02:43:09;;;;;;;8.85;5.07;;;15.60;99.90;;;;;;4994491;28;20019;-73
2021/07/31 02:45:36;;;;;;;10.07;5.18;;;15.60;99.90;;;;;;4994512;28;20121;-75
2021/07/31 02:48:03;;;;;;;7.03;5.20;;;15.60;99.90;;;;;;4994786;28;20026;-74
2021/07/31 02:50:29;;;;;;;5.65;4.97;;;15.60;99.90;;;;;;4994133;28;20498;-74
2021/07/31 02:52:55;;;;;;;9.05;5.55;;;15.70;99.90;;;;;;4994540;28;20119;-74
2021/07/31 02:55:20;;;;;;;9.40;5.22;;;15.70;99.90;;;;;;4994572;28;20099;-74
2021/07/31 02:57:46;;;;;;;9.68;5.30;;;15.70;99.90;;;;;;4994040;28;20541;-75
2021/07/31 03:00:12;;;;;;;12.77;5.40;;;15.70;99.90;;;;;;4994573;28;20490;-74
2021/07/31 03:02:38;;;;;;;13.48;5.75;;;15.70;99.90;;;;;;4994583;28;20054;-73
2021/07/31 03:05:04;;;;;;;14.27;6.28;;;15.80;99.90;;;;;;4993835;28;20072;-75
2021/07/31 03:07:32;;;;;;;10.50;6.35;;;15.80;99.90;;;;;;4994532;28;20490;-73
2021/07/31 03:09:57;;;;;;;12.10;6.35;;;15.80;99.90;;;;;;4994345;28;20054;-73
2021/07/31 03:12:23;;;;;;;16.38;6.88;;;15.80;99.90;;;;;;4994219;28;20496;-74
2021/07/31 03:14:49;;;;;;;18.20;6.55;;;15.80;99.90;;;;;;4994156;28;20125;-74
2021/07/31 03:17:17;;;;;;;16.67;6.45;;;15.80;99.90;;;;;;4994745;28;20026;-74
2021/07/31 03:19:43;;;;;;;10.88;6.30;;;15.80;99.90;;;;;;4993864;28;20065;-74
2021/07/31 03:22:11;;;;;;;20.23;6.28;;;15.80;99.90;;;;;;4994204;28;20394;-74
2021/07/31 03:24:37;;;;;;;9.30;5.70;;;15.80;99.90;;;;;;4994247;28;20035;-74
2021/07/31 03:27:06;;;;;;;10.60;5.55;;;15.80;99.90;;;;;;4993462;28;20026;-74
2021/07/31 03:29:33;;;;;;;12.32;5.68;;;15.80;99.90;;;;;;4994424;28;20473;-74
2021/07/31 03:31:58;;;;;;;19.00;5.80;;;15.80;99.90;;;;;;4994127;28;20037;-74
2021/07/31 03:34:27;;;;;;;8.02;5.15;;;15.80;99.90;;;;;;4993355;28;20026;-75
2021/07/31 03:36:53;;;;;;;15.40;5.47;;;15.90;99.90;;;;;;4993912;28;20030;-74
2021/07/31 03:39:21;;;;;;;9.48;5.63;;;15.80;99.90;;;;;;4994083;28;20034;-75
2021/07/31 03:41:46;;;;;;;8.45;5.13;;;15.90;99.90;;;;;;4993163;28;20113;-75
2021/07/31 03:44:12;;;;;;;12.15;5.72;;;15.80;99.90;;;;;;4993906;28;20165;-74
2021/07/31 03:46:45;;;;;;;8.35;5.13;;;15.80;99.90;;;;;;4993640;28;20030;-75
2021/07/31 03:49:11;;;;;;;6.88;4.97;;;15.80;99.90;;;;;;4993973;28;20486;-75
2021/07/31 03:51:36;;;;;;;11.00;5.90;;;15.70;99.90;;;;;;4993443;28;20033;-75
2021/07/31 03:54:02;;;;;;;13.02;5.57;;;15.70;99.90;;;;;;4993065;28;20031;-75
2021/07/31 03:56:27;;;;;;;18.10;6.57;;;15.70;99.90;;;;;;4993798;28;20026;-75
2021/07/31 03:58:54;;;;;;;8.48;5.55;;;15.80;99.90;;;;;;4993406;28;20046;-75
2021/07/31 04:01:27;;;;;;;11.45;6.03;;;15.80;99.90;;;;;;4992618;28;20030;-75
2021/07/31 04:03:53;;;;;;;12.10;5.32;;;15.70;99.90;;;;;;4993160;28;20081;-74
2021/07/31 04:06:19;;;;;;;8.40;5.38;;;15.80;99.90;;;;;;4993720;28;20026;-74
2021/07/31 04:08:45;;;;;;;7.38;4.95;;;15.80;99.90;;;;;;4993069;28;20026;-74
2021/07/31 04:11:10;;;;;;;8.38;4.75;;;15.80;99.90;;;;;;4993536;28;20026;-73
2021/07/31 04:13:36;;;;;;;6.10;4.85;;;15.80;99.90;;;;;;4993364;28;20470;-75
2021/07/31 04:16:07;;;;;;;11.70;4.32;;;15.80;99.90;;;;;;4992768;28;20029;-74
2021/07/31 04:18:33;;;;;;;4.95;4.45;;;15.80;99.90;;;;;;4993108;28;20497;-75
2021/07/31 04:20:58;;;;;;;5.18;4.15;;;15.80;99.90;;;;;;4987754;28;20018;-75
2021/07/31 04:23:24;;;;;;;4.38;3.72;;;15.80;99.90;;;;;;4984687;28;20061;-74
2021/07/31 04:25:49;;;;;;;7.53;4.47;;;15.80;99.90;;;;;;4993230;28;20026;-75
2021/07/31 04:28:15;;;;;;;6.40;3.58;;;15.80;99.90;;;;;;4993695;28;20073;-75
2021/07/31 04:30:40;;;;;;;8.38;3.65;;;15.80;99.90;;;;;;4991396;28;20034;-74
2021/07/31 04:33:06;;;;;;;6.40;3.92;;;15.80;99.90;;;;;;4980934;28;20054;-74
2021/07/31 04:35:32;;;;;;;8.02;4.25;;;15.80;99.90;;;;;;4993169;28;20113;-74
2021/07/31 04:37:57;;;;;;;6.68;4.03;;;15.80;99.90;;;;;;4992385;28;20489;-74
2021/07/31 04:40:23;;;;;;;9.05;4.20;;;15.90;99.90;;;;;;4993074;28;20026;-74
2021/07/31 04:42:48;;;;;;;4.25;3.28;;;15.90;99.90;;;;;;4991852;28;20026;-74
2021/07/31 04:45:14;;;;;;;6.22;3.17;;;15.90;99.90;;;;;;4984441;28;20075;-75
2021/07/31 04:47:41;;;;;;;10.05;3.95;;;15.90;99.90;;;;;;4988363;28;20037;-74
2021/07/31 04:50:09;;;;;;;5.82;3.40;;;16.10;99.90;;;;;;4993707;28;20038;-74
2021/07/31 04:52:35;;;;;;;7.07;3.30;;;16.00;99.90;;;;;;4993192;28;20052;-73
2021/07/31 04:55:02;;;;;;;10.48;3.70;;;16.00;99.90;;;;;;4993180;28;20022;-73
2021/07/31 04:57:28;;;;;;;5.00;2.90;;;16.00;99.90;;;;;;4991994;28;20064;-73
2021/07/31 04:59:53;;;;;;;6.32;3.50;;;16.00;99.90;;;;;;4992490;28;20046;-74
2021/07/31 05:02:19;;;;;;;8.13;3.00;;;16.00;99.90;;;;;;4992106;28;20046;-75
2021/07/31 05:04:44;;;;;;;3.05;2.72;;;16.10;99.90;;;;;;4991633;28;20181;-74
2021/07/31 05:07:10;;;;;;;3.97;3.25;;;16.10;99.90;;;;;;4992941;28;20113;-73
2021/07/31 05:09:35;;;;;;;6.50;3.33;;;16.10;99.90;;;;;;4993169;28;20038;-74
2021/07/31 05:12:01;;;;;;;3.50;2.83;;;16.10;99.90;;;;;;4991798;28;20014;-75
2021/07/31 05:14:27;;;;;;;8.35;3.20;;;16.10;99.90;;;;;;4992813;28;20042;-75
2021/07/31 05:16:54;;;;;;;6.70;3.38;;;16.10;99.90;;;;;;4992455;28;20050;-72
2021/07/31 05:19:19;;;;;;;5.05;2.80;;;16.10;99.90;;;;;;4991989;28;20030;-74
2021/07/31 05:21:46;;;;;;;9.20;2.60;;;16.10;99.90;;;;;;4992525;28;20446;-75
2021/07/31 05:24:12;;;;;;;4.65;3.10;;;16.20;99.90;;;;;;4992768;28;20034;-75
2021/07/31 05:26:38;;;;;;;10.68;3.05;;;16.10;99.90;;;;;;4992289;28;20370;-75
2021/07/31 05:29:07;;;;;;;5.50;3.17;;;16.10;99.90;;;;;;4992312;28;20474;-74
2021/07/31 05:31:34;;;;;;;5.05;2.78;;;16.20;99.90;;;;;;4960400;28;20027;-73
2021/07/31 05:34:02;;;;;;;5.38;2.95;;;16.20;99.90;;;;;;4955074;28;20039;-74
2021/07/31 05:36:30;;;;;;;9.02;3.42;;;16.20;99.90;;;;;;4953301;28;20020;-73
2021/07/31 05:38:56;;;;;;;4.63;2.75;;;16.30;99.90;;;;;;4956033;28;20049;-74
2021/07/31 05:41:21;;;;;;;10.90;3.58;;;16.30;99.90;;;;;;4957504;28;20470;-74
2021/07/31 05:43:47;;;;;;;5.50;3.10;;;16.20;99.90;;;;;;4957372;28;20043;-75
2021/07/31 05:46:17;;;;;;;9.70;2.78;;;16.20;99.90;;;;;;4962322;28;20030;-75
2021/07/31 05:48:44;;;;;;;;;;;16.20;99.90;;;;;;4959315;28;20105;-74
2021/07/31 05:51:16;;;;;;;6.75;3.22;;;16.20;99.90;;;;;;4959638;28;20042;-74
2021/07/31 05:53:41;;;;;;;3.65;2.65;;;16.20;99.90;;;;;;4965071;28;20085;-73
2021/07/31 05:56:11;;;;;;;9.15;2.75;;;16.30;99.90;;;;;;4970372;28;20027;-75
2021/07/31 05:58:37;;;;;;;3.83;2.85;;;16.40;99.90;;;;;;4962187;28;20035;-76
2021/07/31 06:01:06;;;;;;;3.22;2.67;;;16.40;99.90;;;;;;4961533;28;20031;-74
2021/07/31 06:03:36;;;;;;;3.90;2.75;;;16.50;99.90;;;;;;4963921;28;20043;-75
2021/07/31 06:06:02;;;;;;;2.88;2.58;;;16.60;99.90;;;;;;4965238;28;20043;-74
2021/07/31 06:08:27;;;;;;;5.05;2.35;;;16.60;99.90;;;;;;4958555;28;20031;-75
2021/07/31 06:11:19;;;;;;;4.20;2.92;;;16.60;99.90;;;;;;4962917;28;20120;-76
2021/07/31 06:13:45;;;;;;;2.42;2.22;;;16.60;99.90;;;;;;4966933;28;20040;-74
2021/07/31 06:16:10;;;;;;;4.10;2.45;;;16.70;99.90;;;;;;4957669;28;20023;-74
2021/07/31 06:18:37;;;;;;;3.70;2.50;;;16.80;99.90;;;;;;4962881;28;20066;-75
2021/07/31 06:21:04;;;;;;;2.47;2.28;;;16.90;99.90;;;;;;4962825;28;20411;-75
2021/07/31 06:23:29;;;;;;;5.80;2.58;;;17.00;99.90;;;;;;4971949;28;20065;-76
2021/07/31 06:26:01;;;;;;;4.78;2.15;;;17.10;99.90;;;;;;4962135;28;20794;-75
2021/07/31 06:28:27;;;;;;;5.38;2.45;;;17.20;99.90;;;;;;4964349;28;21489;-74
2021/07/31 06:30:53;;;;;;;3.63;2.10;;;17.20;99.90;;;;;;4961954;28;20023;-74
2021/07/31 06:33:18;;;;;;;2.80;1.83;;;17.30;99.90;;;;;;4975679;28;20669;-74
2021/07/31 06:35:44;;;;;;;5.65;2.40;;;17.30;99.90;;;;;;4975890;28;20034;-74
2021/07/31 06:38:10;;;;;;;6.88;2.55;;;17.20;99.90;;;;;;4979728;28;20023;-75
2021/07/31 06:40:35;;;;;;;5.38;2.17;;;17.30;99.90;;;;;;4975379;28;20027;-74
2021/07/31 06:43:01;;;;;;;5.53;2.50;;;17.40;99.90;;;;;;4974028;28;20390;-74
2021/07/31 06:45:27;;;;;;;3.75;1.80;;;17.40;99.90;;;;;;4974670;28;20467;-76
2021/07/31 06:47:53;;;;;;;6.35;2.35;;;17.50;99.90;;;;;;4974479;28;20027;-75
2021/07/31 06:50:18;;;;;;;4.88;1.67;;;17.50;99.90;;;;;;4973788;28;20031;-75
2021/07/31 06:52:44;;;;;;;3.63;1.65;;;17.60;99.90;;;;;;4974129;28;20066;-75
2021/07/31 06:55:12;;;;;;;3.15;1.60;;;17.70;99.90;;;;;;4974105;28;20023;-75
2021/07/31 06:57:37;;;;;;;3.75;1.83;;;17.80;99.90;;;;;;4976118;28;20033;-75
2021/07/31 07:00:04;;;;;;;3.40;1.77;;;17.80;99.90;;;;;;4978035;28;20146;-74
2021/07/31 07:02:29;;;;;;;4.32;1.98;;;17.80;99.90;;;;;;4967147;28;20027;-75
2021/07/31 07:04:55;;;;;;;7.57;2.47;;;17.80;99.90;;;;;;4974486;28;20098;-74
2021/07/31 07:07:20;;;;;;;5.85;1.95;;;17.90;99.90;;;;;;4975330;28;20078;-75
2021/07/31 07:09:46;;;;;;;2.70;1.70;;;18.00;99.90;;;;;;4974741;28;20054;-74
2021/07/31 07:12:12;;;;;;;4.32;2.10;;;18.10;99.90;;;;;;4974564;28;20426;-75
2021/07/31 07:14:37;;;;;;;4.32;2.25;;;18.20;99.90;;;;;;4975471;28;20041;-75
2021/07/31 07:17:07;;;;;;;5.03;1.77;;;18.30;99.90;;;;;;4974606;28;20018;-75
2021/07/31 07:19:33;;;;;;;6.22;1.92;;;18.10;99.90;;;;;;4982257;28;20030;-74
2021/07/31 07:21:59;;;;;;;6.00;1.85;;;18.10;99.90;;;;;;4994097;28;20379;-77
2021/07/31 07:24:27;;;;;;;9.52;2.10;;;18.10;99.90;;;;;;4968325;28;20031;-75
2021/07/31 07:26:52;;;;;;;5.07;2.05;;;18.00;99.90;;;;;;4979089;28;20022;-76
2021/07/31 07:29:18;;;;;;;3.65;2.20;;;17.90;99.90;;;;;;4974173;28;20486;-74
2021/07/31 07:31:43;;;;;;;3.25;2.08;;;17.90;99.90;;;;;;4956288;28;20039;-76
2021/07/31 07:34:09;;;;;;;5.32;1.92;;;17.80;99.90;;;;;;4955092;28;20388;-77
2021/07/31 07:36:34;;;;;;;6.68;2.00;;;17.70;99.90;;;;;;4957088;28;20039;-78
2021/07/31 07:39:00;;;;;;;28.05;10.50;;;18.50;99.90;;;;;;4957608;28;20033;-76
2021/07/31 07:41:26;;;;;;;20.05;8.93;;;17.60;99.90;;;;;;4962085;28;20472;-75
2021/07/31 07:43:51;;;;;;;3.47;2.70;;;18.20;99.90;;;;;;4957394;28;20110;-76
2021/07/31 07:46:29;;;;;;;12.38;4.72;;;17.40;99.90;;;;;;4972232;28;20399;-78
2021/07/31 07:48:57;;;;;;;8.82;2.72;;;18.00;99.90;;;;;;4985704;28;20026;-78
2021/07/31 07:51:31;;;;;;;6.05;2.78;;;17.40;99.90;;;;;;4970100;28;20027;-76
2021/07/31 07:53:57;;;;;;;5.30;2.90;;;18.10;99.90;;;;;;4955248;28;20384;-76
2021/07/31 07:56:29;;;;;;;4.53;3.05;;;17.40;99.90;;;;;;4959741;28;20023;-77
2021/07/31 07:58:57;;;;;;;6.18;2.70;;;17.40;99.90;;;;;;4966318;28;20033;-77
2021/07/31 08:01:23;;;;;;;3.67;2.28;;;18.30;99.90;;;;;;4972987;28;20057;-76
2021/07/31 08:03:49;;;;;;;4.50;2.63;;;17.50;99.90;;;;;;4971328;28;20041;-76
2021/07/31 08:06:18;;;;;;;5.43;2.55;;;18.70;99.90;;;;;;4972712;28;20015;-76
2021/07/31 08:08:44;;;;;;;6.75;2.72;;;18.20;99.90;;;;;;4973018;28;20054;-77
2021/07/31 08:11:09;;;;;;;3.05;2.80;;;17.40;99.90;;;;;;4973972;28;20058;-77
2021/07/31 08:13:37;;;;;;;2.70;2.50;;;18.10;99.90;;;;;;4973987;28;20030;-76
2021/07/31 08:16:23;;;;;;;6.45;3.15;;;17.60;99.90;;;;;;4970589;28;20443;-74
2021/07/31 08:18:58;;;;;;;6.47;2.72;;;17.20;99.90;;;;;;4988918;28;20035;-75
2021/07/31 08:21:23;;;;;;;7.45;3.10;;;17.10;99.90;;;;;;4992798;28;20034;-74
2021/07/31 08:23:52;;;;;;;5.53;2.83;;;17.30;99.90;;;;;;4993187;28;20553;-76
2021/07/31 08:26:24;;;;;;;8.13;2.53;;;17.30;99.90;;;;;;4993339;28;20418;-75
2021/07/31 08:28:50;;;;;;;2.85;2.30;;;17.40;99.90;;;;;;4992013;28;20117;-76
2021/07/31 08:31:16;;;;;;;4.20;2.47;;;17.40;99.90;;;;;;4992267;28;20019;-71
2021/07/31 08:33:42;;;;;;;5.18;2.80;;;18.10;99.90;;;;;;4982984;28;20065;-75
2021/07/31 08:36:09;;;;;;;3.53;2.75;;;17.60;99.90;;;;;;4979376;28;20027;-75
2021/07/31 08:38:35;;;;;;;7.05;2.88;;;17.60;99.90;;;;;;4962858;28;20020;-75
2021/07/31 08:41:01;;;;;;;6.65;3.05;;;17.60;99.90;;;;;;4961351;28;20031;-76
2021/07/31 08:43:28;;;;;;;5.55;3.20;;;18.20;99.90;;;;;;4955184;28;20042;-74
2021/07/31 08:45:54;;;;;;;6.97;3.55;;;17.50;99.90;;;;;;4954079;28;20078;-75
2021/07/31 08:48:26;;;;;;;6.35;3.67;;;17.50;99.90;;;;;;4957981;28;20038;-75
2021/07/31 08:50:56;;;;;;;3.88;3.42;;;17.40;99.90;;;;;;4955270;28;20021;-74
2021/07/31 08:53:25;;;;;;;8.93;3.20;;;17.40;99.90;;;;;;4958436;28;20106;-75
2021/07/31 08:55:51;;;;;;;5.95;2.65;;;17.30;99.90;;;;;;4959525;28;20394;-75
2021/07/31 08:58:16;;;;;;;6.88;3.35;;;18.70;99.90;;;;;;4956714;28;20023;-75
2021/07/31 09:00:42;;;;;;;6.72;3.50;;;17.30;99.90;;;;;;4956142;28;20550;-75
2021/07/31 09:03:07;;;;;;;4.38;3.83;;;17.40;99.90;;;;;;4961661;28;20055;-74
2021/07/31 09:05:41;;;;;;;10.32;4.32;;;17.50;99.90;;;;;;4957646;28;20120;-74
2021/07/31 09:08:09;;;;;;;8.25;4.60;;;17.70;99.90;;;;;;4959610;28;20035;-74
2021/07/31 09:10:36;;;;;;;5.75;4.43;;;18.00;99.90;;;;;;4956346;28;20054;-75
2021/07/31 09:13:04;;;;;;;6.65;4.05;;;18.20;99.90;;;;;;4955687;28;20106;-75
2021/07/31 09:15:39;;;;;;;10.45;4.28;;;18.40;99.90;;;;;;4954025;28;20058;-76
2021/07/31 09:18:23;;;;;;;8.32;5.05;;;18.70;99.90;;;;;;4969595;28;20122;-76
2021/07/31 09:21:05;;;;;;;5.35;3.50;;;18.70;99.90;;;;;;4960945;28;20031;-76
2021/07/31 09:23:46;;;;;;;4.65;4.05;;;18.60;99.90;;;;;;4957837;28;20438;-75
2021/07/31 09:26:12;;;;;;;;;;;18.50;99.90;;;;;;4974408;28;20383;-75
2021/07/31 09:28:40;;;;;;;5.97;3.53;;;18.30;99.90;;;;;;4976990;28;19906;-75
2021/07/31 09:31:07;;;;;;;10.07;3.90;;;18.00;99.90;;;;;;4975581;28;20101;-75
2021/07/31 09:33:33;;;;;;;7.03;4.28;;;18.00;99.90;;;;;;4972291;28;20038;-76
2021/07/31 09:36:04;;;;;;;7.45;3.88;;;18.00;99.90;;;;;;4975711;28;20470;-75
2021/07/31 09:38:37;;;;;;;;;;;18.10;99.90;;;;;;4969218;28;20042;-75
2021/07/31 09:41:24;;;;;;;5.93;3.85;;;18.20;99.90;;;;;;4963827;28;19910;-75
2021/07/31 09:44:04;;;;;;;11.40;4.18;;;18.30;99.90;;;;;;4961107;28;20134;-76
2021/07/31 09:46:34;;;;;;;4.75;4.28;;;18.30;99.90;;;;;;4976112;28;20790;-76
2021/07/31 09:49:01;;;;;;;6.50;4.65;;;18.20;99.90;;;;;;4974499;28;20042;-77
2021/07/31 09:51:41;;;;;;;7.45;5.05;;;18.20;99.90;;;;;;4975139;28;20030;-75
2021/07/31 09:54:10;;;;;;;7.45;4.45;;;18.40;99.90;;;;;;4963949;28;20027;-74
2021/07/31 09:56:44;;;;;;;7.35;5.38;;;18.70;99.90;;;;;;4974659;28;20119;-76
2021/07/31 09:59:11;;;;;;;5.85;4.93;;;18.90;99.90;;;;;;4975194;28;20550;-75
2021/07/31 10:01:55;;;;;;;8.63;5.43;;;19.20;99.90;;;;;;4974734;28;20041;-75
2021/07/31 10:04:20;;;;;;;7.82;4.15;;;19.40;99.90;;;;;;4975709;28;20179;-75
2021/07/31 10:06:47;;;;;;;7.63;3.90;;;19.40;99.90;;;;;;4974065;28;20035;-75
2021/07/31 10:09:13;;;;;;;5.50;3.67;;;19.30;99.90;;;;;;4962886;28;20073;-75
2021/07/31 10:11:40;;;;;;;6.80;3.67;;;19.30;99.90;;;;;;4975559;28;20395;-76
2021/07/31 10:14:10;;;;;;;4.00;3.30;;;19.30;99.90;;;;;;4974185;28;20022;-76
2021/07/31 10:16:38;;;;;;;6.88;3.53;;;19.30;99.90;;;;;;4975099;28;20105;-74
2021/07/31 10:19:10;;;;;;;3.90;3.25;;;19.40;99.90;;;;;;4978785;28;20050;-76
2021/07/31 10:21:58;;;;;;;7.20;3.53;;;19.50;99.90;;;;;;4968939;28;20390;-75
2021/07/31 10:24:25;;;;;;;6.50;3.22;;;19.50;99.90;;;;;;4975140;28;20038;-74
2021/07/31 10:27:15;;;;;;;3.25;2.92;;;19.50;99.90;;;;;;4968186;28;20120;-73
2021/07/31 10:29:42;;;;;;;;;;;19.40;99.90;;;;;;4974508;28;20077;-76
2021/07/31 10:32:20;;;;;;;9.10;3.55;;;19.40;99.90;;;;;;4976856;28;19936;-76
2021/07/31 10:34:46;;;;;;;7.07;3.53;;;19.50;99.90;;;;;;4972004;28;20056;-77
2021/07/31 10:37:34;;;;;;;4.70;3.67;;;19.70;99.90;;;;;;4973676;28;20042;-77
2021/07/31 10:40:02;;;;;;;3.83;3.33;;;19.90;99.90;;;;;;4977067;28;20034;-76
2021/07/31 10:43:00;;;;;;;3.15;2.90;;;20.10;99.90;;;;;;4972624;28;20026;-75
2021/07/31 10:45:31;;;;;;;5.05;2.88;;;20.30;99.90;;;;;;4972573;28;20037;-77
2021/07/31 10:48:23;;;;;;;9.07;3.53;;;20.40;99.90;;;;;;4974602;28;20042;-77
2021/07/31 10:50:49;;;;;;;5.00;2.85;;;20.40;99.90;;;;;;4972455;28;20077;-77
2021/07/31 10:53:16;;;;;;;5.55;3.50;;;20.20;99.90;;;;;;4973020;28;20037;-76
2021/07/31 10:55:42;;;;;;;3.92;3.35;;;19.90;99.90;;;;;;4974714;28;20031;-76
2021/07/31 10:58:11;;;;;;;7.65;3.28;;;19.70;99.90;;;;;;4970647;28;20670;-76
2021/07/31 11:00:41;;;;;;;5.28;3.92;;;19.70;99.90;;;;;;4974762;28;20085;-77
2021/07/31 11:03:23;;;;;;;5.82;4.20;;;19.70;99.90;;;;;;4969693;28;20041;-77
2021/07/31 11:05:51;;;;;;;8.52;4.35;;;19.70;99.90;;;;;;4956288;28;20085;-77
2021/07/31 11:08:21;;;;;;;6.88;4.55;;;19.80;99.90;;;;;;4958537;28;20050;-78
2021/07/31 11:10:48;;;;;;;7.80;4.45;;;19.90;99.90;;;;;;4958285;28;20499;-77
2021/07/31 11:13:16;;;;;;;8.77;3.60;;;20.10;99.90;;;;;;4960169;28;20054;-77
2021/07/31 11:16:03;;;;;;;5.45;3.20;;;20.30;99.90;;;;;;4964780;28;20018;-76
2021/07/31 11:18:38;;;;;;;3.17;2.88;;;20.40;99.90;;;;;;4963080;28;20289;-76
2021/07/31 11:21:24;;;;;;;5.75;2.42;;;20.50;99.90;;;;;;4957810;28;20026;-76
2021/07/31 11:24:08;;;;;;;3.92;2.72;;;20.40;99.90;;;;;;4962321;28;20039;-77
2021/07/31 11:26:48;;;;;;;4.10;2.97;;;20.40;99.90;;;;;;4965565;28;20031;-77
2021/07/31 11:29:23;;;;;;;4.05;3.40;;;20.40;99.90;;;;;;4973400;28;20046;-77
2021/07/31 11:32:12;;;;;;;7.57;3.63;;;20.40;99.90;;;;;;4972991;28;20026;-76
2021/07/31 11:34:40;;;;;;;6.90;3.60;;;20.60;99.90;;;;;;4974805;28;20062;-76
2021/07/31 11:37:07;;;;;;;4.50;2.92;;;20.50;99.90;;;;;;4973643;28;20488;-77
2021/07/31 11:39:32;;;;;;;6.63;3.17;;;20.60;99.90;;;;;;4973784;28;20075;-75
2021/07/31 11:41:58;;;;;;;6.28;3.50;;;20.60;99.90;;;;;;4978889;28;20400;-77
2021/07/31 11:44:28;;;;;;;4.15;3.03;;;20.60;99.90;;;;;;4967371;28;20047;-76
2021/07/31 11:46:56;;;;;;;3.28;2.67;;;20.60;99.90;;;;;;4959997;28;20133;-76
2021/07/31 11:49:26;;;;;;;6.60;3.10;;;20.40;99.90;;;;;;4972281;28;20059;-76
2021/07/31 11:51:53;;;;;;;5.22;3.03;;;20.40;99.90;;;;;;4976713;28;20449;-76
2021/07/31 11:54:19;;;;;;;8.73;3.72;;;20.40;99.90;;;;;;4982936;28;20081;-76
2021/07/31 11:56:48;;;;;;;5.25;3.50;;;20.50;99.90;;;;;;4959427;28;20077;-76
2021/07/31 11:59:23;;;;;;;3.33;3.00;;;20.50;99.90;;;;;;4964302;28;20030;-76
2021/07/31 12:01:52;;;;;;;5.97;3.08;;;20.40;99.90;;;;;;4954177;28;20034;-77
2021/07/31 12:04:47;;;;;;;4.40;3.30;;;20.40;99.90;;;;;;4963449;28;20101;-77
2021/07/31 12:07:26;;;;;;;3.88;2.75;;;20.30;99.90;;;;;;4969668;28;20546;-75
2021/07/31 12:10:01;;;;;;;2.40;2.20;;;20.40;99.90;;;;;;4971279;28;20129;-77
2021/07/31 12:12:29;;;;;;;2.83;2.40;;;20.40;99.90;;;;;;4961765;28;20027;-76
2021/07/31 12:15:19;;;;;;;2.13;1.95;;;20.40;99.90;;;;;;4972785;28;20506;-76
2021/07/31 12:17:56;;;;;;;4.22;2.22;;;20.60;99.90;;;;;;4962336;28;20057;-76
2021/07/31 12:20:38;;;;;;;4.03;2.97;;;20.50;99.90;;;;;;4955676;28;20035;-75
2021/07/31 12:23:06;;;;;;;4.20;3.42;;;20.20;99.90;;;;;;4956828;28;20065;-77
2021/07/31 12:25:33;;;;;;;4.05;3.30;;;19.90;99.90;;;;;;4958823;28;20038;-76
2021/07/31 12:27:58;;;;;;;7.65;3.47;;;19.70;99.90;;;;;;4954768;28;20089;-76
2021/07/31 12:30:27;;;;;;;5.03;4.05;;;19.60;99.90;;;;;;4956958;28;20428;-76
2021/07/31 12:33:00;;;;;;;8.23;4.18;;;19.50;99.90;;;;;;4961282;28;20102;-76
2021/07/31 12:35:39;;;;;;;4.60;3.95;;;19.50;99.90;;;;;;4957502;28;20142;-76
2021/07/31 12:38:10;;;;;;;4.35;3.80;;;19.60;99.90;;;;;;4959712;28;20027;-76
2021/07/31 12:40:37;;;;;;;5.85;4.47;;;19.70;99.90;;;;;;4959034;28;20487;-75
2021/07/31 12:43:06;;;;;;;6.85;4.43;;;19.70;99.90;;;;;;4959788;28;20038;-77
2021/07/31 12:45:32;;;;;;;4.30;3.75;;;19.90;99.90;;;;;;4961264;28;20121;-76
2021/07/31 12:47:58;;;;;;;4.38;3.97;;;20.10;99.90;;;;;;4960426;28;20460;-77
2021/07/31 12:50:23;;;;;;;4.05;3.70;;;20.20;99.90;;;;;;4962980;28;20471;-76
2021/07/31 12:52:49;;;;;;;5.63;3.60;;;20.00;99.90;;;;;;4957527;28;20519;-76